地図

経路データ

SID SEASON NUMBER BASIN SUBBASIN NAME ISO_TIME NATURE LAT LON WMO_WIND WMO_PRES WMO_AGENCY TRACK_TYPE DIST2LAND LANDFALL IFLAG USA_AGENCY USA_ATCF_ID USA_LAT USA_LON USA_RECORD USA_STATUS USA_WIND USA_PRES USA_SSHS USA_R34_NE USA_R34_SE USA_R34_SW USA_R34_NW USA_R50_NE USA_R50_SE USA_R50_SW USA_R50_NW USA_R64_NE USA_R64_SE USA_R64_SW USA_R64_NW USA_POCI USA_ROCI USA_RMW USA_EYE TOKYO_LAT TOKYO_LON TOKYO_GRADE TOKYO_WIND TOKYO_PRES TOKYO_R50_DIR TOKYO_R50_LONG TOKYO_R50_SHORT TOKYO_R30_DIR TOKYO_R30_LONG TOKYO_R30_SHORT TOKYO_LAND CMA_LAT CMA_LON CMA_CAT CMA_WIND CMA_PRES HKO_LAT HKO_LON HKO_CAT HKO_WIND HKO_PRES NEWDELHI_LAT NEWDELHI_LON NEWDELHI_GRADE NEWDELHI_WIND NEWDELHI_PRES NEWDELHI_CI NEWDELHI_DP NEWDELHI_POCI REUNION_LAT REUNION_LON REUNION_TYPE REUNION_WIND REUNION_PRES REUNION_TNUM REUNION_CI REUNION_RMW REUNION_R34_NE REUNION_R34_SE REUNION_R34_SW REUNION_R34_NW REUNION_R50_NE REUNION_R50_SE REUNION_R50_SW REUNION_R50_NW REUNION_R64_NE REUNION_R64_SE REUNION_R64_SW REUNION_R64_NW BOM_LAT BOM_LON BOM_TYPE BOM_WIND BOM_PRES BOM_TNUM BOM_CI BOM_RMW BOM_R34_NE BOM_R34_SE BOM_R34_SW BOM_R34_NW BOM_R50_NE BOM_R50_SE BOM_R50_SW BOM_R50_NW BOM_R64_NE BOM_R64_SE BOM_R64_SW BOM_R64_NW BOM_ROCI BOM_POCI BOM_EYE BOM_POS_METHOD BOM_PRES_METHOD NADI_LAT NADI_LON NADI_CAT NADI_WIND NADI_PRES WELLINGTON_LAT WELLINGTON_LON WELLINGTON_WIND WELLINGTON_PRES DS824_LAT DS824_LON DS824_STAGE DS824_WIND DS824_PRES TD9636_LAT TD9636_LON TD9636_STAGE TD9636_WIND TD9636_PRES TD9635_LAT TD9635_LON TD9635_WIND TD9635_PRES TD9635_ROCI NEUMANN_LAT NEUMANN_LON NEUMANN_CLASS NEUMANN_WIND NEUMANN_PRES MLC_LAT MLC_LON MLC_CLASS MLC_WIND MLC_PRES USA_GUST BOM_GUST BOM_GUST_PER REUNION_GUST REUNION_GUST_PER USA_SEAHGT USA_SEARAD_NE USA_SEARAD_SE USA_SEARAD_SW USA_SEARAD_NW STORM_SPEED STORM_DIR
1974325S24166 1975 134 SP MM NOT_NAMED 1974-11-21 00:00:00 TS -23.7000 165.700 main 172 172 O________OO_O_ jtwc_sh SH021975 -23.7000 165.700 -1 -23.7000 165.700 TC 35 -23.7000 165.700 2 -23.7000 165.700 TC 20 7 156
1974325S24166 1975 134 SP MM NOT_NAMED 1974-11-21 03:00:00 TS -24.0086 165.849 main 199 196 P________PP_P_ SH021975 -23.9850 165.850 -1 -23.9850 165.850 TC 35 -24.0095 165.845 2 -24.0550 165.850 TC 20 7 157
1974325S24166 1975 134 SP MM NOT_NAMED 1974-11-21 06:00:00 TS -24.3338 165.998 main 224 224 O________OP_O_ jtwc_sh SH021975 -24.3000 166.000 -1 -24.3000 166.000 TC 35 -24.3351 165.993 2 -24.4000 166.000 TC 20 7 158
1974325S24166 1975 134 SP MM NOT_NAMED 1974-11-21 09:00:00 TS -24.6920 166.149 main 264 262 P________PP_P_ SH021975 -24.6700 166.150 -1 -24.6700 166.150 TC 35 -24.6932 166.144 2 -24.7350 166.150 TC 25 8 160
1974325S24166 1975 134 SP MM NOT_NAMED 1974-11-21 12:00:00 TS -25.1000 166.300 main 304 304 O________OO_O_ jtwc_sh SH021975 -25.1000 166.300 -1 -25.1000 166.300 TC 35 -25.1000 166.300 2 -25.1000 166.300 TC 30 9 162
1974325S24166 1975 134 SP MM NOT_NAMED 1974-11-21 15:00:00 TS -25.5690 166.458 main 358 358 P________PP_P_ SH021975 -25.5925 166.457 -1 -25.5925 166.457 TC 35 -25.5635 166.460 2 -25.5275 166.458 TC 30 10 164
1974325S24166 1975 134 SP MM NOT_NAMED 1974-11-21 18:00:00 TS -26.0644 166.602 main 413 413 O________OP_O_ jtwc_sh SH021975 -26.1000 166.600 -1 -26.1000 166.600 TC 35 -26.0576 166.609 2 -26.0000 166.600 TC 30 10 166
1974325S24166 1975 134 SP MM NOT_NAMED 1974-11-21 21:00:00 TS -26.5520 166.724 main 469 469 P________PP_P_ SH021975 -26.5725 166.723 -1 -26.5725 166.723 TC 35 -26.5479 166.729 2 -26.5150 166.722 TC 32 10 169
1974325S24166 1975 134 SP MM NOT_NAMED 1974-11-22 00:00:00 TS -27.0000 166.800 main 513 513 O________OO_O_ jtwc_sh SH021975 -27.0000 166.800 -1 -27.0000 166.800 TC 35 -27.0000 166.800 2 -27.0000 166.800 TC 35 8 174
1974325S24166 1975 134 SP MM NOT_NAMED 1974-11-22 03:00:00 TS -27.3783 166.827 main 558 558 P________PP_P_ SH021975 -27.3725 166.830 -1 -27.3725 166.830 TC 35 -27.3883 166.817 2 -27.3800 166.830 TC 35 7 0
1974325S24166 1975 134 SP MM NOT_NAMED 1974-11-22 06:00:00 TS -27.7081 166.796 main 592 592 O________OP_O_ jtwc_sh SH021975 -27.7000 166.800 -1 -27.7000 166.800 TC 35 -27.7323 166.783 2 -27.7000 166.800 TC 35 7 189
1974325S24166 1975 134 SP MM NOT_NAMED 1974-11-22 09:00:00 TS -28.0257 166.719 main 625 625 P________PP_P_ SH021975 -28.0225 166.723 -1 -28.0225 166.723 TC 35 -28.0352 166.708 2 -28.0225 166.723 TC 37 6 196
1974325S24166 1975 134 SP MM NOT_NAMED 1974-11-22 12:00:00 TS -28.3000 166.600 main 659 659 O________OO_O_ jtwc_sh SH021975 -28.3000 166.600 -1 -28.3000 166.600 TC 35 -28.3000 166.600 2 -28.3000 166.600 TC 40 5 205
1974325S24166 1975 134 SP MM NOT_NAMED 1974-11-22 15:00:00 TS -28.5132 166.461 main 681 681 P________PP_P_ SH021975 -28.5150 166.457 -1 -28.5150 166.457 TC 35 -28.5076 166.470 2 -28.5150 166.457 TC 40 5 213
1974325S24166 1975 134 SP MM NOT_NAMED 1974-11-22 18:00:00 TS -28.6963 166.304 main 704 704 O________OP_O_ jtwc_sh SH021975 -28.7000 166.300 -1 -28.7000 166.300 TC 35 -28.6852 166.315 2 -28.7000 166.300 TC 40 5 218
1974325S24166 1975 134 SP MM NOT_NAMED 1974-11-22 21:00:00 TS -28.8757 166.141 main 728 728 P________PP_P_ SH021975 -28.8775 166.135 -1 -28.8775 166.135 TC 35 -28.8701 166.152 2 -28.8775 166.142 TC 40 5 213
1974325S24166 1975 134 SP MM NOT_NAMED 1974-11-23 00:00:00 TS -29.1000 166.000 main 751 751 O________OO_O_ jtwc_sh SH021975 -29.1000 166.000 -1 -29.1000 166.000 TC 35 -29.1000 166.000 2 -29.1000 166.000 TC 40 6 198
1974325S24166 1975 134 SP MM NOT_NAMED 1974-11-23 03:00:00 TS -29.4166 165.946 main 786 786 P________PP_P_ SH021975 -29.4199 165.950 -1 -29.4199 165.950 TC 35 -29.4067 165.992 2 -29.4200 165.892 TC 37 7 187
1974325S24166 1975 134 SP MM NOT_NAMED 1974-11-23 06:00:00 TS -29.7911 165.895 main 818 797 O________OP_O_ jtwc_sh SH021975 -29.8000 165.900 -1 -29.8000 165.900 TC 35 -29.7644 165.981 2 -29.8000 165.800 TC 35 8 187
1974325S24166 1975 134 SP MM NOT_NAMED 1974-11-23 09:00:00 TS -30.1702 165.839 main 797 783 P________PP_P_ SH021975 -30.1769 165.846 -1 -30.1769 165.846 TC 35 -30.1650 165.881 2 -30.1620 165.781 TC 35 9 198
1974325S24166 1975 134 SP MM NOT_NAMED 1974-11-23 12:00:00 TS -30.6000 165.600 main 785 779 O________OO_O_ jtwc_sh SH021975 -30.6000 165.600 -1 -30.6000 165.600 TC 35 -30.6000 165.600 2 -30.6000 165.600 TC 35 12 216
1974325S24166 1975 134 SP MM NOT_NAMED 1974-11-23 15:00:00 TS -31.1237 165.023 main 803 798 P________PP_P_ SH021975 -31.0927 165.005 -1 -31.0927 165.005 TC 35 -31.1020 165.009 2 -31.2074 165.071 TC 35 16 228
1974325S24166 1975 134 SP MM NOT_NAMED 1974-11-23 18:00:00 TS -31.6554 164.233 main 840 840 O________OP_O_ jtwc_sh SH021975 -31.6000 164.200 -1 -31.6000 164.200 TC 35 -31.6218 164.231 2 -31.8000 164.300 TC 35 17 235
1974325S24166 1975 134 SP MM NOT_NAMED 1974-11-23 21:00:00 TS -32.1229 163.366 main 893 893 P________PP_P_ SH021975 -32.0878 163.350 -1 -32.0878 163.350 TC 35 -32.1052 163.362 2 -32.2108 163.400 TC 35 17 240
1974325S24166 1975 134 SP MM NOT_NAMED 1974-11-24 00:00:00 TS -32.5000 162.500 main 900 840 O________OO_O_ jtwc_sh SH021975 -32.5000 162.500 -1 -32.5000 162.500 TC 35 -32.5000 162.500 2 -32.5000 162.500 TC 35 15 244
1974325S24166 1975 134 SP MM NOT_NAMED 1974-11-24 03:00:00 TS -32.7812 161.787 main 840 788 P________PP_P_ SH021975 -32.8093 161.769 -1 -32.8093 161.769 TC 35 -32.7700 161.789 2 -32.7364 161.819 TC 35 12 248
1974325S24166 1975 134 SP MM NOT_NAMED 1974-11-24 06:00:00 TS -32.9619 161.127 main 781 730 O________OP_O_ jtwc_sh SH021975 -33.0000 161.100 -1 -33.0000 161.100 TC 35 -32.9476 161.109 2 -32.9000 161.200 TC 35 11 256
1974325S24166 1975 134 SP MM NOT_NAMED 1974-11-24 09:00:00 TS -33.0638 160.458 main 730 668 P________PP_P_ SH021975 -33.0870 160.442 -1 -33.0870 160.442 TC 35 -33.0515 160.450 2 -33.0299 160.500 TC 32 11 263
1974325S24166 1975 134 SP EA NOT_NAMED 1974-11-24 12:00:00 TS -33.1000 159.800 main 668 615 O________OO_O_ jtwc_sh SH021975 -33.1000 159.800 -1 -33.1000 159.800 TC 35 -33.1000 159.800 2 -33.1000 159.800 TC 30 11 267
1974325S24166 1975 134 SP EA NOT_NAMED 1974-11-24 15:00:00 TS -33.1153 159.148 main 606 553 P________PP_P_ SH021975 -33.1147 159.150 -1 -33.1147 159.150 TC 35 -33.1097 159.151 2 -33.1220 159.142 TC 30 11 270
1974325S24166 1975 134 SP EA NOT_NAMED 1974-11-24 18:00:00 TS -33.0977 158.500 main 553 499 O________OP_O_ jtwc_sh SH021975 -33.1000 158.500 -1 -33.1000 158.500 TC 35 -33.0906 158.500 2 -33.1000 158.500 TC 30 11 273
1974325S24166 1975 134 SP EA NOT_NAMED 1974-11-24 21:00:00 TS -33.0558 157.850 main 499 433 P________PP_P_ SH021975 -33.0582 157.850 -1 -33.0582 157.850 TC 35 -33.0512 157.850 2 -33.0557 157.852 TC 27 11 275
1974325S24166 1975 134 SP EA NOT_NAMED 1974-11-25 00:00:00 TS -33.0000 157.200 main 433 O________OO_O_ jtwc_sh SH021975 -33.0000 157.200 -1 -33.0000 157.200 TC 35 -33.0000 157.200 2 -33.0000 157.200 TC 25 11 276

デジタル台風データ・検索

IBTrACS Databaseについて

本データベースは、米国NOAAが公開する1842年以降の世界の熱帯低気圧のベストトラックデータアーカイブInternational Best Track Archive for Climate Stewardship (IBTrACS)を、ウェブで閲覧しやすい形式に変換したものです。

最終更新日:2021-12-03